Portada
METAR-TAF:

METAR-TAF

Aeropuertos :

Aeropuerto de Clermont-Ferrand/Auvergne

Clermont-Ferrand, Francia

latitud: 45-47N, longitud: 003-10E, altitud: 332 m

Observación

El informe se hizo hace 43 minutos, a las 01:00 UTC
Viento 2 kt con dirección variable
Temperatura -1°C
Humedad 93%
Presión 1022 hPa
Visibilidad: 4600 m
neblina

METAR: LFLC 240100Z AUTO VRB02KT 4600 BR NSC M01/M02 Q1022 NOSIG

Hora: 02:43 (01:43 UTC)

Pronóstico

El informe se hizo hace 4 horas y 36 minutos, a las 21:07 UTC
Pronóstico válido del 23 a las 21 UTC al 24 a las 21 UTC
Viento 2 kt con dirección variable
Visibilidad: 7000 m
Escasas nubes a una altura de 4000 ft
Probabilidad 40% :
Temporalmente
del 23 a las 21 UTC al 24 a las 10 UTC
Visibilidad: 3000 m
neblina

TAF: LFLC 232107Z 2321/2421 VRB02KT 7000 FEW040 PROB40 TEMPO 2321/2410 3000 BR

Observaciones y pronósticos meteorológicos de más de 4000 aeropuertos (mensajes METAR y TAF).

Los puntos amarillos y rojos representan las estaciones disponibles.

Ponga el ratón en el punto deseado para ver el nombre de la estación.

Haga clic para ver las observaciones y los pronósticos meteorológicos.

Para cambiar el mapa : haga clic en los botones verdes con una cruz de color negro para hacer un zoom, en el botón verde con un guión para alejar o en las flechas verdes para mapas adyacentes.


METAR-TAF: